sensor_id;sensor_type;location;lat;lon;timestamp;pressure;altitude;pressure_sealevel;temperature;humidity
64792;BME280;51226;47.504;19.074;2023-05-03T00:02:01;100566.81;;;15.82;83.53
64792;BME280;51226;47.504;19.074;2023-05-03T00:05:04;100565.06;;;15.83;83.87
64792;BME280;51226;47.504;19.074;2023-05-03T00:08:09;100559.88;;;15.86;83.85
64792;BME280;51226;47.504;19.074;2023-05-03T00:11:12;100564.22;;;15.85;84.21
64792;BME280;51226;47.504;19.074;2023-05-03T00:14:14;100560.62;;;15.79;84.83
64792;BME280;51226;47.504;19.074;2023-05-03T00:17:17;100554.47;;;15.80;85.15
64792;BME280;51226;47.504;19.074;2023-05-03T00:20:20;100552.72;;;15.79;85.13
64792;BME280;51226;47.504;19.074;2023-05-03T00:23:24;100549.22;;;15.80;85.53
64792;BME280;51226;47.504;19.074;2023-05-03T00:26:27;100548.50;;;15.88;84.66
64792;BME280;51226;47.504;19.074;2023-05-03T00:29:30;100544.88;;;15.82;85.13
64792;BME280;51226;47.504;19.074;2023-05-03T00:32:32;100533.47;;;15.81;85.20
64792;BME280;51226;47.504;19.074;2023-05-03T00:35:35;100540.38;;;15.76;85.41
64792;BME280;51226;47.504;19.074;2023-05-03T00:38:38;100539.28;;;15.66;85.73
64792;BME280;51226;47.504;19.074;2023-05-03T00:41:41;100547.03;;;15.60;85.93
64792;BME280;51226;47.504;19.074;2023-05-03T00:44:44;100552.47;;;15.68;86.25
64792;BME280;51226;47.504;19.074;2023-05-03T00:47:47;100553.19;;;15.59;86.61
64792;BME280;51226;47.504;19.074;2023-05-03T00:50:50;100553.31;;;15.65;86.52
64792;BME280;51226;47.504;19.074;2023-05-03T00:53:53;100546.53;;;15.77;85.53
64792;BME280;51226;47.504;19.074;2023-05-03T00:56:55;100532.31;;;15.68;85.54
64792;BME280;51226;47.504;19.074;2023-05-03T00:59:59;100557.84;;;15.74;85.95
64792;BME280;51226;47.504;19.074;2023-05-03T01:03:02;100562.13;;;15.69;86.23
64792;BME280;51226;47.504;19.074;2023-05-03T01:09:35;100569.88;;;15.61;86.51
64792;BME280;51226;47.504;19.074;2023-05-03T01:19:24;100571.75;;;15.68;86.26
64792;BME280;51226;47.504;19.074;2023-05-03T01:22:36;100579.78;;;15.74;86.64
64792;BME280;51226;47.504;19.074;2023-05-03T01:25:40;100577.16;;;15.74;86.38
64792;BME280;51226;47.504;19.074;2023-05-03T01:28:43;100577.25;;;15.78;86.27
64792;BME280;51226;47.504;19.074;2023-05-03T01:34:50;100577.16;;;15.74;86.04
64792;BME280;51226;47.504;19.074;2023-05-03T01:37:54;100581.59;;;15.76;86.29
64792;BME280;51226;47.504;19.074;2023-05-03T01:40:59;100582.63;;;15.84;85.97
64792;BME280;51226;47.504;19.074;2023-05-03T01:44:03;100586.06;;;15.81;86.12
64792;BME280;51226;47.504;19.074;2023-05-03T01:47:07;100578.16;;;15.80;86.42
64792;BME280;51226;47.504;19.074;2023-05-03T01:50:10;100580.00;;;15.84;85.79
64792;BME280;51226;47.504;19.074;2023-05-03T01:53:12;100576.37;;;15.77;86.04
64792;BME280;51226;47.504;19.074;2023-05-03T01:56:16;100580.63;;;15.73;86.52
64792;BME280;51226;47.504;19.074;2023-05-03T01:59:19;100577.25;;;15.78;86.40
64792;BME280;51226;47.504;19.074;2023-05-03T02:02:22;100573.53;;;15.69;86.48
64792;BME280;51226;47.504;19.074;2023-05-03T02:05:25;100578.66;;;15.63;87.02
64792;BME280;51226;47.504;19.074;2023-05-03T02:08:28;100570.66;;;15.57;87.39
64792;BME280;51226;47.504;19.074;2023-05-03T02:11:31;100561.84;;;15.55;87.42
64792;BME280;51226;47.504;19.074;2023-05-03T02:14:33;100567.84;;;15.48;87.37
64792;BME280;51226;47.504;19.074;2023-05-03T02:17:36;100560.78;;;15.47;87.77
64792;BME280;51226;47.504;19.074;2023-05-03T02:20:39;100551.12;;;15.44;88.54
64792;BME280;51226;47.504;19.074;2023-05-03T02:23:46;100555.50;;;15.44;88.42
64792;BME280;51226;47.504;19.074;2023-05-03T02:26:48;100561.66;;;15.46;87.91
64792;BME280;51226;47.504;19.074;2023-05-03T02:29:52;100558.97;;;15.43;88.30
64792;BME280;51226;47.504;19.074;2023-05-03T02:32:55;100558.00;;;15.37;88.09
64792;BME280;51226;47.504;19.074;2023-05-03T02:35:58;100556.25;;;15.38;87.89
64792;BME280;51226;47.504;19.074;2023-05-03T02:39:01;100557.81;;;15.30;88.04
64792;BME280;51226;47.504;19.074;2023-05-03T02:42:04;100551.69;;;15.29;88.35
64792;BME280;51226;47.504;19.074;2023-05-03T02:45:07;100557.75;;;15.25;88.46
64792;BME280;51226;47.504;19.074;2023-05-03T02:48:09;100553.31;;;15.24;88.69
64792;BME280;51226;47.504;19.074;2023-05-03T02:51:12;100549.78;;;15.22;88.99
64792;BME280;51226;47.504;19.074;2023-05-03T02:54:15;100551.50;;;15.22;89.35
64792;BME280;51226;47.504;19.074;2023-05-03T02:57:18;100544.53;;;15.22;89.65
64792;BME280;51226;47.504;19.074;2023-05-03T03:00:21;100549.13;;;15.32;89.73
64792;BME280;51226;47.504;19.074;2023-05-03T03:03:23;100542.16;;;15.34;89.36
64792;BME280;51226;47.504;19.074;2023-05-03T03:06:27;100536.94;;;15.36;89.62
64792;BME280;51226;47.504;19.074;2023-05-03T03:09:29;100535.06;;;15.30;89.79
64792;BME280;51226;47.504;19.074;2023-05-03T03:12:36;100535.91;;;15.29;90.16
64792;BME280;51226;47.504;19.074;2023-05-03T03:15:38;100533.31;;;15.31;90.18
64792;BME280;51226;47.504;19.074;2023-05-03T03:18:41;100538.72;;;15.37;90.12
64792;BME280;51226;47.504;19.074;2023-05-03T03:21:44;100548.53;;;15.46;89.76
64792;BME280;51226;47.504;19.074;2023-05-03T03:24:47;100532.75;;;15.46;89.50
64792;BME280;51226;47.504;19.074;2023-05-03T03:27:50;100540.75;;;15.50;89.28
64792;BME280;51226;47.504;19.074;2023-05-03T03:30:53;100550.56;;;15.59;88.68
64792;BME280;51226;47.504;19.074;2023-05-03T03:33:55;100549.56;;;15.54;89.01
64792;BME280;51226;47.504;19.074;2023-05-03T03:36:59;100552.25;;;15.55;89.07
64792;BME280;51226;47.504;19.074;2023-05-03T03:40:02;100539.16;;;15.60;88.78
64792;BME280;51226;47.504;19.074;2023-05-03T03:43:05;100550.56;;;15.59;88.64
64792;BME280;51226;47.504;19.074;2023-05-03T03:46:09;100548.87;;;15.63;88.19
64792;BME280;51226;47.504;19.074;2023-05-03T03:49:12;100553.28;;;15.64;87.50
64792;BME280;51226;47.504;19.074;2023-05-03T03:52:15;100559.34;;;15.61;87.07
64792;BME280;51226;47.504;19.074;2023-05-03T03:55:18;100556.72;;;15.61;86.90
64792;BME280;51226;47.504;19.074;2023-05-03T03:58:21;100560.84;;;15.50;87.54
64792;BME280;51226;47.504;19.074;2023-05-03T04:01:24;100561.66;;;15.46;88.03
64792;BME280;51226;47.504;19.074;2023-05-03T04:04:27;100563.25;;;15.37;88.46
64792;BME280;51226;47.504;19.074;2023-05-03T04:07:30;100563.28;;;15.39;88.77
64792;BME280;51226;47.504;19.074;2023-05-03T04:10:33;100566.94;;;15.46;88.71
64792;BME280;51226;47.504;19.074;2023-05-03T04:13:36;100573.09;;;15.48;88.53
64792;BME280;51226;47.504;19.074;2023-05-03T04:16:39;100570.50;;;15.49;88.32
64792;BME280;51226;47.504;19.074;2023-05-03T04:19:42;100579.34;;;15.53;87.94
64792;BME280;51226;47.504;19.074;2023-05-03T04:22:45;100576.63;;;15.50;87.96
64792;BME280;51226;47.504;19.074;2023-05-03T04:25:48;100582.87;;;15.55;88.16
64792;BME280;51226;47.504;19.074;2023-05-03T04:28:51;100582.09;;;15.59;88.23
64792;BME280;51226;47.504;19.074;2023-05-03T04:31:54;100581.22;;;15.60;88.04
64792;BME280;51226;47.504;19.074;2023-05-03T04:34:57;100583.06;;;15.64;87.54
64792;BME280;51226;47.504;19.074;2023-05-03T04:38:01;100578.59;;;15.60;87.01
64792;BME280;51226;47.504;19.074;2023-05-03T04:41:05;100587.41;;;15.62;87.29
64792;BME280;51226;47.504;19.074;2023-05-03T04:44:08;100587.47;;;15.64;87.05
64792;BME280;51226;47.504;19.074;2023-05-03T04:47:10;100587.47;;;15.64;86.64
64792;BME280;51226;47.504;19.074;2023-05-03T04:50:15;100591.03;;;15.67;86.87
64792;BME280;51226;47.504;19.074;2023-05-03T04:53:18;100599.00;;;15.70;86.78
64792;BME280;51226;47.504;19.074;2023-05-03T04:56:21;100597.38;;;15.76;86.63
64792;BME280;51226;47.504;19.074;2023-05-03T04:59:28;100599.19;;;15.80;86.35
64792;BME280;51226;47.504;19.074;2023-05-03T05:02:31;100607.22;;;15.86;85.23
64792;BME280;51226;47.504;19.074;2023-05-03T05:05:34;100602.81;;;15.85;85.04
64792;BME280;51226;47.504;19.074;2023-05-03T05:08:37;100607.16;;;15.83;85.32
64792;BME280;51226;47.504;19.074;2023-05-03T05:11:40;100617.75;;;15.86;85.42
64792;BME280;51226;47.504;19.074;2023-05-03T05:14:43;100614.28;;;15.90;85.01
64792;BME280;51226;47.504;19.074;2023-05-03T05:17:47;100603.03;;;15.96;84.83
64792;BME280;51226;47.504;19.074;2023-05-03T05:20:50;100610.22;;;16.04;84.46
64792;BME280;51226;47.504;19.074;2023-05-03T05:23:53;100607.72;;;16.14;83.93
64792;BME280;51226;47.504;19.074;2023-05-03T05:26:56;100604.38;;;16.21;83.65
64792;BME280;51226;47.504;19.074;2023-05-03T05:29:59;100605.41;;;16.29;83.47
64792;BME280;51226;47.504;19.074;2023-05-03T05:33:04;100603.91;;;16.45;81.74
64792;BME280;51226;47.504;19.074;2023-05-03T05:36:07;100609.28;;;16.49;81.30
64792;BME280;51226;47.504;19.074;2023-05-03T05:39:11;100611.38;;;16.72;78.81
64792;BME280;51226;47.504;19.074;2023-05-03T05:42:14;100615.69;;;16.64;79.82
64792;BME280;51226;47.504;19.074;2023-05-03T05:45:17;100604.41;;;16.73;79.51
64792;BME280;51226;47.504;19.074;2023-05-03T05:48:20;100607.09;;;16.79;78.84
64792;BME280;51226;47.504;19.074;2023-05-03T05:51:24;100611.75;;;16.92;77.51
64792;BME280;51226;47.504;19.074;2023-05-03T05:54:28;100620.06;;;17.18;75.12
64792;BME280;51226;47.504;19.074;2023-05-03T05:57:32;100625.44;;;17.26;74.05
64792;BME280;51226;47.504;19.074;2023-05-03T06:00:35;100638.56;;;17.21;74.48
64792;BME280;51226;47.504;19.074;2023-05-03T06:03:48;100645.31;;;17.06;75.21
64792;BME280;51226;47.504;19.074;2023-05-03T06:06:51;100648.84;;;17.04;74.98
64792;BME280;51226;47.504;19.074;2023-05-03T06:09:55;100650.56;;;17.01;75.24
64792;BME280;51226;47.504;19.074;2023-05-03T06:12:57;100657.37;;;16.90;75.25
64792;BME280;51226;47.504;19.074;2023-05-03T06:16:00;100667.03;;;16.88;76.10
64792;BME280;51226;47.504;19.074;2023-05-03T06:19:03;100667.03;;;16.88;75.58
64792;BME280;51226;47.504;19.074;2023-05-03T06:22:09;100673.31;;;16.96;74.70
64792;BME280;51226;47.504;19.074;2023-05-03T06:25:12;100665.44;;;17.00;75.07
64792;BME280;51226;47.504;19.074;2023-05-03T06:28:19;100664.94;;;17.23;74.02
64792;BME280;51226;47.504;19.074;2023-05-03T06:31:23;100673.94;;;17.39;73.52
64792;BME280;51226;47.504;19.074;2023-05-03T06:34:26;100682.88;;;17.49;72.98
64792;BME280;51226;47.504;19.074;2023-05-03T06:37:29;100679.38;;;17.48;73.15
64792;BME280;51226;47.504;19.074;2023-05-03T06:40:33;100691.78;;;17.55;73.33
64792;BME280;51226;47.504;19.074;2023-05-03T06:43:38;100691.09;;;17.69;73.53
64792;BME280;51226;47.504;19.074;2023-05-03T06:46:41;100692.22;;;17.86;73.40
64792;BME280;51226;47.504;19.074;2023-05-03T06:49:44;100694.19;;;18.01;71.39
64792;BME280;51226;47.504;19.074;2023-05-03T06:52:47;100687.31;;;18.15;70.59
64792;BME280;51226;47.504;19.074;2023-05-03T06:55:49;100688.44;;;18.35;70.81
64792;BME280;51226;47.504;19.074;2023-05-03T06:58:53;100683.38;;;18.56;69.15
64792;BME280;51226;47.504;19.074;2023-05-03T07:01:55;100688.88;;;18.82;66.46
64792;BME280;51226;47.504;19.074;2023-05-03T07:04:59;100690.87;;;19.03;65.59
64792;BME280;51226;47.504;19.074;2023-05-03T07:08:01;100679.50;;;19.14;65.82
64792;BME280;51226;47.504;19.074;2023-05-03T07:11:05;100675.19;;;19.25;68.21
64792;BME280;51226;47.504;19.074;2023-05-03T07:14:07;100677.19;;;19.63;64.97
64792;BME280;51226;47.504;19.074;2023-05-03T07:17:10;100678.34;;;20.21;61.86
64792;BME280;51226;47.504;19.074;2023-05-03T07:20:13;100674.94;;;20.63;59.75
64792;BME280;51226;47.504;19.074;2023-05-03T07:23:16;100675.84;;;20.98;57.44
64792;BME280;51226;47.504;19.074;2023-05-03T07:26:18;100669.66;;;21.20;57.94
64792;BME280;51226;47.504;19.074;2023-05-03T07:29:21;100679.31;;;21.43;55.91
64792;BME280;51226;47.504;19.074;2023-05-03T07:32:23;100671.34;;;21.72;51.89
64792;BME280;51226;47.504;19.074;2023-05-03T07:35:26;100669.56;;;21.73;53.04
64792;BME280;51226;47.504;19.074;2023-05-03T07:38:30;100664.28;;;21.63;55.04
64792;BME280;51226;47.504;19.074;2023-05-03T07:41:33;100679.34;;;21.49;56.17
64792;BME280;51226;47.504;19.074;2023-05-03T07:44:35;100688.19;;;21.48;58.07
64792;BME280;51226;47.504;19.074;2023-05-03T07:47:38;100683.75;;;21.59;55.31
64792;BME280;51226;47.504;19.074;2023-05-03T07:50:41;100684.63;;;21.68;55.10
64792;BME280;51226;47.504;19.074;2023-05-03T07:53:45;100686.41;;;21.45;59.06
64792;BME280;51226;47.504;19.074;2023-05-03T07:56:47;100688.19;;;21.51;54.25
64792;BME280;51226;47.504;19.074;2023-05-03T07:59:50;100686.41;;;21.52;54.72
64792;BME280;51226;47.504;19.074;2023-05-03T08:02:53;100688.19;;;21.63;54.15
64792;BME280;51226;47.504;19.074;2023-05-03T08:05:57;100689.06;;;21.55;54.70
64792;BME280;51226;47.504;19.074;2023-05-03T08:09:00;100686.34;;;21.81;53.40
64792;BME280;51226;47.504;19.074;2023-05-03T08:12:03;100687.03;;;22.25;52.36
64792;BME280;51226;47.504;19.074;2023-05-03T08:15:05;100689.50;;;22.60;51.50
64792;BME280;51226;47.504;19.074;2023-05-03T08:18:09;100694.63;;;22.91;49.73
64792;BME280;51226;47.504;19.074;2023-05-03T08:21:11;100702.69;;;22.79;51.84
64792;BME280;51226;47.504;19.074;2023-05-03T08:24:15;100698.97;;;23.07;48.80
64792;BME280;51226;47.504;19.074;2023-05-03T08:27:17;100697.16;;;23.09;48.86
64792;BME280;51226;47.504;19.074;2023-05-03T08:30:21;100698.03;;;23.05;49.77
64792;BME280;51226;47.504;19.074;2023-05-03T08:33:23;100692.38;;;23.45;48.41
64792;BME280;51226;47.504;19.074;2023-05-03T08:36:27;100693.09;;;23.63;48.47
64792;BME280;51226;47.504;19.074;2023-05-03T08:39:29;100694.75;;;23.75;48.02
64792;BME280;51226;47.504;19.074;2023-05-03T08:42:33;100697.50;;;23.65;48.42
64792;BME280;51226;47.504;19.074;2023-05-03T08:45:35;100705.75;;;24.21;47.11
64792;BME280;51226;47.504;19.074;2023-05-03T08:48:38;100701.13;;;24.36;46.70
64792;BME280;51226;47.504;19.074;2023-05-03T08:51:41;100709.19;;;24.30;48.44
64792;BME280;51226;47.504;19.074;2023-05-03T08:54:44;100706.47;;;24.34;46.59
64792;BME280;51226;47.504;19.074;2023-05-03T08:57:48;100709.41;;;24.14;46.94
64792;BME280;51226;47.504;19.074;2023-05-03T09:00:51;100712.25;;;23.99;47.03
64792;BME280;51226;47.504;19.074;2023-05-03T09:03:53;100705.22;;;23.92;49.03
64792;BME280;51226;47.504;19.074;2023-05-03T09:07:05;100708.88;;;23.80;47.93
64792;BME280;51226;47.504;19.074;2023-05-03T09:10:23;100700.97;;;23.72;47.82
64792;BME280;51226;47.504;19.074;2023-05-03T09:13:29;100695.72;;;23.66;49.43
64792;BME280;51226;47.504;19.074;2023-05-03T09:16:33;100701.75;;;23.86;48.09
64792;BME280;51226;47.504;19.074;2023-05-03T09:19:48;100702.56;;;23.92;48.08
64792;BME280;51226;47.504;19.074;2023-05-03T09:22:50;100697.09;;;24.04;48.85
64792;BME280;51226;47.504;19.074;2023-05-03T09:25:54;100709.47;;;24.10;47.11
64792;BME280;51226;47.504;19.074;2023-05-03T09:29:01;100703.25;;;24.11;46.59
64792;BME280;51226;47.504;19.074;2023-05-03T09:32:04;100708.66;;;24.01;46.31
64792;BME280;51226;47.504;19.074;2023-05-03T09:35:07;100706.03;;;24.00;46.84
64792;BME280;51226;47.504;19.074;2023-05-03T09:38:22;100704.38;;;23.88;48.25
64792;BME280;51226;47.504;19.074;2023-05-03T09:41:30;100705.25;;;23.90;50.64
64792;BME280;51226;47.504;19.074;2023-05-03T09:44:40;100704.31;;;23.96;47.78
64792;BME280;51226;47.504;19.074;2023-05-03T09:47:48;100698.37;;;24.39;44.85
64792;BME280;51226;47.504;19.074;2023-05-03T09:50:52;100690.09;;;25.18;43.94
64792;BME280;51226;47.504;19.074;2023-05-03T09:53:55;100693.00;;;25.54;42.88
64792;BME280;51226;47.504;19.074;2023-05-03T09:56:58;100694.94;;;25.46;42.35
64792;BME280;51226;47.504;19.074;2023-05-03T10:00:03;100707.19;;;25.08;47.02
64792;BME280;51226;47.504;19.074;2023-05-03T10:03:18;100704.13;;;24.75;47.86
64792;BME280;51226;47.504;19.074;2023-05-03T10:06:26;100702.81;;;24.41;45.57
64792;BME280;51226;47.504;19.074;2023-05-03T10:09:35;100701.44;;;24.13;48.63
64792;BME280;51226;47.504;19.074;2023-05-03T10:12:41;100696.41;;;23.86;50.59
64792;BME280;51226;47.504;19.074;2023-05-03T10:15:44;100691.19;;;23.77;47.48
64792;BME280;51226;47.504;19.074;2023-05-03T10:19:06;100700.12;;;23.68;48.32
64792;BME280;51226;47.504;19.074;2023-05-03T10:22:14;100697.38;;;23.79;47.30
64792;BME280;51226;47.504;19.074;2023-05-03T10:25:16;100693.12;;;23.61;48.01
64792;BME280;51226;47.504;19.074;2023-05-03T10:28:20;100694.87;;;23.62;47.69
64792;BME280;51226;47.504;19.074;2023-05-03T10:34:44;100691.41;;;23.56;48.14
64792;BME280;51226;47.504;19.074;2023-05-03T10:37:47;100687.31;;;23.21;48.28
64792;BME280;51226;47.504;19.074;2023-05-03T10:40:52;100695.50;;;22.91;49.07
64792;BME280;51226;47.504;19.074;2023-05-03T10:43:56;100679.72;;;22.67;50.34
64792;BME280;51226;47.504;19.074;2023-05-03T10:47:18;100690.47;;;22.53;50.72
64792;BME280;51226;47.504;19.074;2023-05-03T10:50:24;100678.16;;;22.35;49.94
64792;BME280;51226;47.504;19.074;2023-05-03T10:56:37;100682.66;;;22.16;49.99
64792;BME280;51226;47.504;19.074;2023-05-03T10:59:48;100680.94;;;22.09;49.97
64792;BME280;51226;47.504;19.074;2023-05-03T11:06:01;100676.53;;;22.01;50.67
64792;BME280;51226;47.504;19.074;2023-05-03T11:09:05;100674.78;;;21.93;51.58
64792;BME280;51226;47.504;19.074;2023-05-03T11:12:09;100668.53;;;22.05;50.60
64792;BME280;51226;47.504;19.074;2023-05-03T11:15:11;100673.84;;;22.08;49.74
64792;BME280;51226;47.504;19.074;2023-05-03T11:18:14;100673.84;;;22.06;49.83
64792;BME280;51226;47.504;19.074;2023-05-03T11:21:17;100673.84;;;22.03;49.64
64792;BME280;51226;47.504;19.074;2023-05-03T11:24:20;100672.22;;;21.76;54.06
64792;BME280;51226;47.504;19.074;2023-05-03T11:27:23;100674.00;;;21.68;53.37
64792;BME280;51226;47.504;19.074;2023-05-03T11:30:27;100680.19;;;21.65;52.48
64792;BME280;51226;47.504;19.074;2023-05-03T11:33:29;100668.69;;;21.64;52.25
64792;BME280;51226;47.504;19.074;2023-05-03T11:36:33;100675.78;;;21.65;51.86
64792;BME280;51226;47.504;19.074;2023-05-03T11:39:35;100676.63;;;21.75;52.48
64792;BME280;51226;47.504;19.074;2023-05-03T11:42:49;100667.81;;;21.65;52.01
64792;BME280;51226;47.504;19.074;2023-05-03T11:45:53;100671.34;;;21.69;51.64
64792;BME280;51226;47.504;19.074;2023-05-03T11:48:57;100668.69;;;21.74;51.92
64792;BME280;51226;47.504;19.074;2023-05-03T11:52:00;100678.44;;;21.58;51.94
64792;BME280;51226;47.504;19.074;2023-05-03T11:55:03;100667.84;;;21.38;52.69
64792;BME280;51226;47.504;19.074;2023-05-03T11:58:11;100673.19;;;21.24;53.68
64792;BME280;51226;47.504;19.074;2023-05-03T12:01:14;100667.87;;;21.21;52.66
64792;BME280;51226;47.504;19.074;2023-05-03T12:04:17;100671.44;;;21.14;53.08
64792;BME280;51226;47.504;19.074;2023-05-03T12:07:20;100659.03;;;21.09;52.89
64792;BME280;51226;47.504;19.074;2023-05-03T12:10:30;100672.28;;;21.09;52.67
64792;BME280;51226;47.504;19.074;2023-05-03T12:13:33;100668.78;;;21.12;52.92
64792;BME280;51226;47.504;19.074;2023-05-03T12:16:47;100671.44;;;20.94;53.69
64792;BME280;51226;47.504;19.074;2023-05-03T12:19:52;100662.59;;;20.87;53.82
64792;BME280;51226;47.504;19.074;2023-05-03T12:23:34;100667.00;;;20.76;54.87
64792;BME280;51226;47.504;19.074;2023-05-03T12:26:37;100667.00;;;20.94;54.00
64792;BME280;51226;47.504;19.074;2023-05-03T12:29:39;100652.00;;;20.91;53.94
64792;BME280;51226;47.504;19.074;2023-05-03T12:32:43;100652.88;;;20.97;53.90
64792;BME280;51226;47.504;19.074;2023-05-03T12:35:46;100654.63;;;21.08;53.93
64792;BME280;51226;47.504;19.074;2023-05-03T12:38:49;100651.09;;;21.17;53.57
64792;BME280;51226;47.504;19.074;2023-05-03T12:41:57;100651.06;;;21.14;54.27
64792;BME280;51226;47.504;19.074;2023-05-03T12:45:04;100650.19;;;21.10;53.95
64792;BME280;51226;47.504;19.074;2023-05-03T12:48:07;100644.91;;;21.10;53.82
64792;BME280;51226;47.504;19.074;2023-05-03T12:51:10;100636.94;;;21.15;53.49
64792;BME280;51226;47.504;19.074;2023-05-03T12:54:16;100640.47;;;21.13;53.50
64792;BME280;51226;47.504;19.074;2023-05-03T12:57:20;100634.31;;;20.97;53.80
64792;BME280;51226;47.504;19.074;2023-05-03T13:00:26;100636.06;;;20.76;56.52
64792;BME280;51226;47.504;19.074;2023-05-03T13:03:36;100640.47;;;20.69;54.79
64792;BME280;51226;47.504;19.074;2023-05-03T13:06:45;100632.53;;;20.80;54.32
64792;BME280;51226;47.504;19.074;2023-05-03T13:09:49;100622.81;;;20.82;53.97
64792;BME280;51226;47.504;19.074;2023-05-03T13:12:55;100638.72;;;20.75;54.15
64792;BME280;51226;47.504;19.074;2023-05-03T13:15:58;100641.38;;;20.64;54.35
64792;BME280;51226;47.504;19.074;2023-05-03T13:19:01;100645.72;;;20.46;55.71
64792;BME280;51226;47.504;19.074;2023-05-03T13:22:04;100639.53;;;20.32;59.17
64792;BME280;51226;47.504;19.074;2023-05-03T13:25:06;100642.16;;;20.29;59.98
64792;BME280;51226;47.504;19.074;2023-05-03T13:28:09;100639.56;;;20.55;59.90
64792;BME280;51226;47.504;19.074;2023-05-03T13:31:12;100635.16;;;20.45;60.70
64792;BME280;51226;47.504;19.074;2023-05-03T13:34:15;100628.94;;;20.46;61.44
64792;BME280;51226;47.504;19.074;2023-05-03T13:37:17;100628.97;;;20.52;62.61
64792;BME280;51226;47.504;19.074;2023-05-03T13:40:21;100629.87;;;20.71;60.99
64792;BME280;51226;47.504;19.074;2023-05-03T13:43:23;100621.03;;;20.81;61.66
64792;BME280;51226;47.504;19.074;2023-05-03T13:46:26;100613.06;;;21.04;59.69
64792;BME280;51226;47.504;19.074;2023-05-03T13:49:29;100622.81;;;21.04;61.06
64792;BME280;51226;47.504;19.074;2023-05-03T13:52:32;100614.84;;;21.07;61.68
64792;BME280;51226;47.504;19.074;2023-05-03T13:55:34;100618.34;;;21.20;60.20
64792;BME280;51226;47.504;19.074;2023-05-03T13:58:39;100611.25;;;21.28;61.10
64792;BME280;51226;47.504;19.074;2023-05-03T14:01:42;100612.97;;;21.46;58.32
64792;BME280;51226;47.504;19.074;2023-05-03T14:04:45;100608.56;;;21.54;59.41
64792;BME280;51226;47.504;19.074;2023-05-03T14:07:48;100611.06;;;21.91;56.28
64792;BME280;51226;47.504;19.074;2023-05-03T14:10:51;100604.69;;;22.23;53.53
64792;BME280;51226;47.504;19.074;2023-05-03T14:13:53;100601.91;;;22.46;51.12
64792;BME280;51226;47.504;19.074;2023-05-03T14:16:59;100600.03;;;22.61;49.80
64792;BME280;51226;47.504;19.074;2023-05-03T14:20:02;100602.72;;;22.53;49.62
64792;BME280;51226;47.504;19.074;2023-05-03T14:23:09;100598.34;;;22.47;49.99
64792;BME280;51226;47.504;19.074;2023-05-03T14:26:12;100602.87;;;22.34;50.67
64792;BME280;51226;47.504;19.074;2023-05-03T14:29:15;100597.56;;;22.27;50.34
64792;BME280;51226;47.504;19.074;2023-05-03T14:32:19;100597.56;;;22.25;49.85
64792;BME280;51226;47.504;19.074;2023-05-03T14:35:22;100592.44;;;22.00;50.53
64792;BME280;51226;47.504;19.074;2023-05-03T14:38:24;100599.56;;;21.89;51.12
64792;BME280;51226;47.504;19.074;2023-05-03T14:41:27;100592.47;;;21.88;51.59
64792;BME280;51226;47.504;19.074;2023-05-03T14:44:30;100591.69;;;21.75;51.93
64792;BME280;51226;47.504;19.074;2023-05-03T14:47:33;100591.72;;;21.63;52.29
64792;BME280;51226;47.504;19.074;2023-05-03T14:50:36;100600.59;;;21.46;52.29
64792;BME280;51226;47.504;19.074;2023-05-03T14:53:39;100594.47;;;21.27;52.92
64792;BME280;51226;47.504;19.074;2023-05-03T14:56:41;100593.59;;;21.25;52.63
64792;BME280;51226;47.504;19.074;2023-05-03T14:59:45;100595.38;;;21.17;53.04
64792;BME280;51226;47.504;19.074;2023-05-03T15:02:51;100601.59;;;21.10;53.14
64792;BME280;51226;47.504;19.074;2023-05-03T15:05:54;100602.47;;;21.09;53.10
64792;BME280;51226;47.504;19.074;2023-05-03T15:08:56;100601.59;;;21.02;53.69
64792;BME280;51226;47.504;19.074;2023-05-03T15:12:01;100608.66;;;20.96;54.07
64792;BME280;51226;47.504;19.074;2023-05-03T15:15:06;100601.62;;;20.88;54.98
64792;BME280;51226;47.504;19.074;2023-05-03T15:18:09;100599.84;;;20.86;55.92
64792;BME280;51226;47.504;19.074;2023-05-03T15:21:18;100601.62;;;20.87;56.47
64792;BME280;51226;47.504;19.074;2023-05-03T15:24:21;100602.50;;;20.77;57.68
64792;BME280;51226;47.504;19.074;2023-05-03T15:27:24;100607.78;;;20.63;57.46
64792;BME280;51226;47.504;19.074;2023-05-03T15:30:27;100602.47;;;20.52;58.40
64792;BME280;51226;47.504;19.074;2023-05-03T15:33:31;100610.41;;;20.60;58.00
64792;BME280;51226;47.504;19.074;2023-05-03T15:36:40;100608.66;;;20.55;58.35
64792;BME280;51226;47.504;19.074;2023-05-03T15:39:42;100616.56;;;20.48;58.61
64792;BME280;51226;47.504;19.074;2023-05-03T15:42:45;100615.72;;;20.53;58.55
64792;BME280;51226;47.504;19.074;2023-05-03T15:45:48;100622.75;;;20.42;59.37
64792;BME280;51226;47.504;19.074;2023-05-03T15:48:53;100614.78;;;20.36;59.06
64792;BME280;51226;47.504;19.074;2023-05-03T15:51:56;100622.72;;;20.21;59.94
64792;BME280;51226;47.504;19.074;2023-05-03T15:54:59;100621.78;;;20.08;60.77
64792;BME280;51226;47.504;19.074;2023-05-03T15:58:01;100620.91;;;20.04;61.09
64792;BME280;51226;47.504;19.074;2023-05-03T16:01:05;100616.50;;;19.98;61.45
64792;BME280;51226;47.504;19.074;2023-05-03T16:04:07;100618.25;;;19.98;61.91
64792;BME280;51226;47.504;19.074;2023-05-03T16:07:10;100609.47;;;20.07;60.59
64792;BME280;51226;47.504;19.074;2023-05-03T16:10:13;100608.56;;;20.00;60.93
64792;BME280;51226;47.504;19.074;2023-05-03T16:13:17;100615.59;;;19.95;61.39